Latest Coastal Weather Observations for Ballina

IDN60701

Issued at 9:55 am EST Thursday 2 October 2014 (issued every 10 minutes, with the page automatically refreshed every 10 minutes)

About coastal observations | Map of coastal stations | Coastal observations for NSW | Marine services | Other Formats
Station Details ID: 058198 Name: BALLINA AIRPORT AWS Lat: -28.84 Lon: 153.56 Height: 1.3 m
Data from the previous 72 hours. | See also: Recent months at Ballina
Date/Time
EST
Temp

°C
Wind Pressure Rain
since 9am
mm
Weather Cloud Vis
km
Sea
Height
m
Swell
Dir
 
Speed
knots
Gust
knots
hPa Trend Height
m
Period
s
Dir
02/09:30am 20.1 SSW 8 12 1022.8 - 0.0 - Partly cloudy 10 - - - -
02/09:00am 19.8 S 8 12 1022.9 - 0.0 - Cloudy 10 - - - -
02/08:30am 18.8 SW 7 10 1022.8 - 0.0 - Cloudy 10 - - - -
02/08:00am 17.7 SW 7 9 1022.8 - 0.0 - Cloudy 10 - - - -
02/07:30am 17.0 SW 8 11 1022.6 - 0.0 - Cloudy 10 - - - -
02/07:00am 16.8 WSW 7 9 1022.5 - 0.0 - Partly cloudy 10 - - - -
02/06:30am 15.9 WSW 6 8 1022.4 - 0.0 - Partly cloudy 10 - - - -
02/06:00am 15.8 WSW 7 9 1022.0 - 0.0 - Cloudy 10 - - - -
02/05:30am 16.2 SW 7 9 1021.7 - 0.0 - Partly cloudy 10 - - - -
02/05:00am 17.9 SSE 9 12 1021.3 - 0.0 - Partly cloudy 10 - - - -
02/04:30am 18.2 SSE 10 14 1021.1 - 0.0 - Partly cloudy 10 - - - -
02/04:00am 18.1 SSE 11 15 1020.9 - 0.0 - Partly cloudy 10 - - - -
02/03:30am 18.1 SSE 10 16 1020.6 - 0.0 - Cloudy 10 - - - -
02/03:00am 18.2 SSE 11 16 1020.7 - 0.0 - Cloudy 10 - - - -
02/02:30am 18.1 SSE 10 15 1020.6 - 0.0 - Cloudy 10 - - - -
02/02:00am 18.1 SSE 10 15 1020.8 - 0.0 - Partly cloudy 10 - - - -
02/01:30am 18.1 SSE 11 17 1020.9 - 0.0 - Partly cloudy 10 - - - -
02/01:00am 18.2 SSE 12 17 1021.2 - 0.0 - Partly cloudy 10 - - - -
02/12:30am 18.4 SSE 13 21 1021.3 - 0.0 - Partly cloudy 10 - - - -
02/12:00am 18.5 SSE 15 20 1021.5 - 0.0 - Cloudy 10 - - - -
 
Date/Time
EST
Temp

°C
Wind Pressure Rain
since 9am
mm
Weather Cloud Vis
km
Sea
Height
m
Swell
Dir
 
Speed
knots
Gust
knots
hPa Trend Height
m
Period
s
Dir
01/11:30pm 18.6 SSE 14 20 1021.5 - 0.0 - Partly cloudy 10 - - - -
01/11:00pm 18.9 SSE 15 22 1021.5 - 0.0 - - 10 - - - -
01/10:30pm 18.9 SSE 15 20 1021.4 - 0.0 - Cloudy 10 - - - -
01/10:00pm 18.9 S 14 21 1021.3 - 0.0 - Partly cloudy 10 - - - -
01/09:30pm 19.0 S 15 20 1021.1 - 0.0 - Partly cloudy 10 - - - -
01/09:00pm 19.1 S 14 19 1020.9 - 0.0 - Cloudy 10 - - - -
01/08:30pm 19.2 S 13 20 1020.7 - 0.0 - Partly cloudy 10 - - - -
01/08:00pm 19.2 S 16 23 1020.2 - 0.0 - Cloudy 10 - - - -
01/07:36pm 19.4 S 16 26 1019.8 - 0.0 - Cloudy 10 - - - -
01/07:30pm 19.4 S 17 26 1019.7 - 0.0 - Partly cloudy 10 - - - -
01/07:00pm 19.6 S 14 21 1019.2 - 0.0 - Cloudy 10 - - - -
01/06:45pm 19.7 S 15 25 1018.8 - 0.0 - Cloudy 10 - - - -
01/06:30pm 19.8 S 14 21 1018.6 - 0.0 - Cloudy 10 - - - -
01/06:00pm 19.9 S 17 26 1017.8 - 0.0 - Cloudy 10 - - - -
01/05:30pm 20.4 SSE 14 21 1017.2 - 0.0 - Partly cloudy 10 - - - -
01/05:00pm 20.5 SSE 16 26 1016.6 - 0.0 - Partly cloudy 10 - - - -
01/04:57pm 20.6 SSE 16 26 1016.5 - 0.0 - Partly cloudy 10 - - - -
01/04:30pm 20.8 SSE 19 27 1015.9 - 0.0 - Cloudy 9 - - - -
01/04:00pm 21.5 SSE 20 27 1015.2 - 0.0 - Partly cloudy 8 - - - -
01/03:30pm 22.2 SSE 19 25 1014.6 - 0.0 - Cloudy 7 - - - -
01/03:00pm 23.5 S 20 30 1013.6 - 0.0 - Mostly clear 9 - - - -
01/02:34pm 27.1 S 16 26 1012.4 - 0.0 - - 10 - - - -
01/02:30pm 28.3 S 16 23 1012.3 - 0.0 - - 10 - - - -
01/02:05pm 30.0 SSE 13 18 1011.1 - 0.0 - - 10 - - - -
01/02:00pm 32.1 SSW 22 33 1010.8 - 0.0 - - 10 - - - -
01/01:59pm 32.4 SW 23 33 1010.8 - 0.0 - - 10 - - - -
01/01:57pm 32.7 W 21 33 1010.5 - 0.0 - - 10 - - - -
01/01:30pm 32.5 W 11 19 1011.1 - 0.0 - - 10 - - - -
01/01:00pm 32.4 WSW 13 17 1011.6 - 0.0 - - 10 - - - -
01/12:30pm 32.4 W 12 17 1011.9 - 0.0 - - 10 - - - -
01/12:00pm 31.8 WSW 13 16 1012.5 - 0.0 - - 10 - - - -
01/11:30am 30.8 WNW 10 17 1013.0 - 0.0 - - 10 - - - -
01/11:00am 30.2 WNW 8 13 1013.5 - 0.0 - - 10 - - - -
01/10:30am 29.7 WNW 12 17 1013.8 - 0.0 - - 10 - - - -
01/10:00am 28.8 NW 12 16 1014.4 - 0.0 - - 10 - - - -
01/09:30am 28.2 WNW 11 17 1014.8 - 0.0 - - 10 - - - -
01/09:00am 26.7 NNW 7 13 1014.7 - 0.0 - - 10 - - - -
01/08:30am 25.3 N 7 10 1015.0 - 0.0 - - 10 - - - -
01/08:00am 23.1 N 7 10 1015.2 - 0.0 - - 10 - - - -
01/07:30am 21.3 N 5 6 1015.5 - 0.0 - - 10 - - - -
01/07:00am 19.6 N 4 5 1015.5 - 0.0 - - 10 - - - -
01/06:30am 17.3 CALM 0 3 1015.0 - 0.0 - - 10 - - - -
01/06:00am 15.2 CALM 0 0 1014.5 - 0.0 - - 10 - - - -
01/05:30am 14.9 WNW 3 4 1014.2 - 0.0 - - 10 - - - -
01/05:00am 15.5 WNW 2 4 1013.8 - 0.0 - - 10 - - - -
01/04:30am 17.9 NNW 6 8 1013.5 - 0.0 - - 10 - - - -
01/04:00am 18.3 N 6 9 1013.3 - 0.0 - - 10 - - - -
01/03:30am 18.5 N 7 11 1013.3 - 0.0 - - 10 - - - -
01/03:00am 18.7 N 8 12 1013.5 - 0.0 - - 10 - - - -
01/02:30am 18.8 N 9 13 1013.6 - 0.0 - - 10 - - - -
01/02:00am 18.8 N 9 12 1014.0 - 0.0 - - 10 - - - -
01/01:30am 18.7 N 9 11 1014.4 - 0.0 - - 10 - - - -
01/01:00am 18.7 N 10 14 1014.8 - 0.0 - - 10 - - - -
01/12:30am 18.8 N 9 13 1015.1 - 0.0 - - 10 - - - -
01/12:00am 19.1 N 11 15 1015.5 - 0.0 - - 10 - - - -
 
Date/Time
EST
Temp

°C
Wind Pressure Rain
since 9am
mm
Weather Cloud Vis
km
Sea
Height
m
Swell
Dir
 
Speed
knots
Gust
knots
hPa Trend Height
m
Period
s
Dir
30/11:30pm 19.2 N 11 14 1015.8 - 0.0 - - 10 - - - -
30/11:00pm 19.4 N 12 15 1015.9 - 0.0 - - 10 - - - -
30/10:30pm 19.5 N 11 16 1016.2 - 0.0 - - 10 - - - -
30/10:00pm 19.6 N 11 16 1016.3 - 0.0 - - 10 - - - -
30/09:30pm 19.8 N 13 19 1016.4 - 0.0 - - 10 - - - -
30/09:00pm 19.9 N 14 20 1016.7 - 0.0 - - 10 - - - -
30/08:30pm 19.9 N 13 18 1016.7 - 0.0 - - 10 - - - -
30/08:00pm 19.9 N 11 15 1016.7 - 0.0 - - 10 - - - -
30/07:30pm 20.1 N 13 18 1016.6 - 0.0 - - 10 - - - -
30/07:00pm 20.0 N 12 17 1016.5 - 0.0 - - 10 - - - -
30/06:30pm 20.1 N 11 17 1016.2 - 0.0 - - 10 - - - -
30/06:00pm 20.3 NNE 13 19 1015.8 - 0.0 - - 10 - - - -
30/05:30pm 20.8 N 13 19 1015.7 - 0.0 - - 10 - - - -
30/05:00pm 21.6 N 15 20 1015.7 - 0.0 - - 10 - - - -
30/04:30pm 22.3 N 15 19 1015.8 - 0.0 - - 10 - - - -
30/04:00pm 22.9 N 18 25 1015.8 - 0.0 - - 10 - - - -
30/03:30pm 23.7 N 15 24 1015.7 - 0.0 - - 10 - - - -
30/03:00pm 24.1 N 17 23 1015.9 - 0.0 - - 10 - - - -
30/02:30pm 24.7 NNE 14 21 1016.0 - 0.0 - - 10 - - - -
30/02:00pm 26.1 NNE 12 18 1016.1 - 0.0 - - 10 - - - -
30/01:30pm 25.7 N 12 16 1016.3 - 0.0 - - 10 - - - -
30/01:00pm 25.8 NE 14 18 1016.8 - 0.0 - - 10 - - - -
30/12:30pm 25.7 NE 15 18 1017.2 - 0.0 - - 10 - - - -
30/12:00pm 25.6 NE 15 19 1017.5 - 0.0 - - 10 - - - -
30/11:30am 25.8 NE 14 17 1017.8 - 0.0 - - 10 - - - -
30/11:00am 26.0 NE 13 16 1018.2 - 0.0 - - 10 - - - -
30/10:30am 25.6 NE 11 15 1018.6 - 0.0 - - 10 - - - -
30/10:00am 25.4 N 6 11 1019.0 - 0.0 - - 10 - - - -
30/09:30am 24.8 N 5 8 1019.4 - 0.0 - - 10 - - - -
30/09:00am 23.4 N 5 7 1019.6 - 0.0 - - 10 - - - -
30/08:30am 22.2 N 6 8 1019.5 - 0.0 - - 10 - - - -
30/08:00am 21.2 N 6 9 1019.4 - 0.0 - - 10 - - - -
30/07:30am 19.3 N 5 7 1019.3 - 0.0 - - 10 - - - -
30/07:00am 15.9 CALM 0 0 1019.4 - 0.0 - - 10 - - - -
30/06:30am 13.9 CALM 0 0 1019.2 - 0.0 - - 10 - - - -
30/06:00am 11.9 CALM 0 0 1019.0 - 0.0 - - 10 - - - -
30/05:42am 11.8 CALM 0 0 1018.7 - 0.0 - - 10 - - - -
30/05:30am 11.7 CALM 0 0 1018.7 - 0.0 - - 2 - - - -
30/05:03am 11.1 CALM 0 0 1018.4 - 0.0 - - 5 - - - -
30/05:00am 11.8 CALM 0 0 1018.4 - 0.0 - - 10 - - - -
30/04:59am 11.8 CALM 0 0 1018.4 - 0.0 - - 10 - - - -
30/04:36am 12.6 CALM 0 0 1018.2 - 0.0 - - 4 - - - -
30/04:30am 12.2 CALM 0 0 1018.1 - 0.0 - - 10 - - - -
30/04:00am 12.3 CALM 0 0 1018.0 - 0.0 - - 10 - - - -
30/03:30am 12.7 CALM 0 0 1017.7 - 0.0 - - 10 - - - -
30/03:00am 12.9 CALM 0 0 1017.6 - 0.0 - - 10 - - - -
30/02:30am 13.1 CALM 0 0 1017.8 - 0.0 - - 10 - - - -
30/02:00am 14.1 CALM 0 0 1017.9 - 0.0 - - 10 - - - -
30/01:30am 14.6 N 3 3 1017.9 - 0.0 - - 10 - - - -
30/01:00am 16.4 NNW 3 4 1018.2 - 0.0 - - 10 - - - -
30/12:30am 16.7 N 5 7 1018.3 - 0.0 - - 10 - - - -
30/12:00am 17.1 N 7 9 1018.4 - 0.0 - - 10 - - - -
 
Date/Time
EST
Temp

°C
Wind Pressure Rain
since 9am
mm
Weather Cloud Vis
km
Sea
Height
m
Swell
Dir
 
Speed
knots
Gust
knots
hPa Trend Height
m
Period
s
Dir
29/11:30pm 17.3 N 7 10 1018.5 - 0.0 - - 10 - - - -
29/11:00pm 17.8 N 8 10 1018.5 - 0.0 - - 10 - - - -
29/10:30pm 18.1 N 10 13 1018.5 - 0.0 - - 10 - - - -
29/10:00pm 18.2 N 9 12 1018.6 - 0.0 - - 10 - - - -
29/09:30pm 18.6 N 10 15 1018.6 - 0.0 - - 10 - - - -
29/09:00pm 18.8 N 10 15 1018.6 - 0.0 - - 10 - - - -
29/08:30pm 18.9 N 10 13 1018.5 - 0.0 - - 10 - - - -
29/08:00pm 19.0 N 9 13 1018.4 - 0.0 - - 10 - - - -
29/07:30pm 19.2 N 10 14 1018.1 - 0.0 - - 10 - - - -
29/07:00pm 19.4 N 9 13 1017.8 - 0.0 - - 10 - - - -
29/06:30pm 19.6 N 10 13 1017.5 - 0.0 - - 10 - - - -
29/06:00pm 19.7 N 9 14 1017.2 - 0.0 - - 10 - - - -
29/05:30pm 20.6 N 10 16 1016.9 - 0.0 - - 10 - - - -
29/05:00pm 21.5 N 12 16 1016.6 - 0.0 - - 10 - - - -
29/04:30pm 22.4 N 11 14 1016.7 - 0.0 - - 10 - - - -
29/04:00pm 23.1 N 12 15 1016.6 - 0.0 - - 10 - - - -
29/03:30pm 23.7 NNE 12 16 1016.5 - 0.0 - - 10 - - - -
29/03:00pm 24.6 N 10 16 1016.4 - 0.0 - - 10 - - - -
29/02:30pm 24.0 NE 15 19 1016.5 - 0.0 - - 10 - - - -
29/02:00pm 24.7 NE 12 16 1016.8 - 0.0 - - 10 - - - -
29/01:30pm 24.7 NE 13 16 1017.2 - 0.0 - - 10 - - - -
29/01:00pm 25.1 NE 13 18 1017.5 - 0.0 - - 10 - - - -
29/12:30pm 25.0 NE 10 15 1017.9 - 0.0 - - 10 - - - -
29/12:00pm 24.5 NE 14 18 1018.2 - 0.0 - - 10 - - - -
29/11:30am 24.5 NNE 10 15 1018.6 - 0.0 - - 10 - - - -
29/11:00am 24.0 N 10 15 1019.1 - 0.0 - - 10 - - - -
29/10:30am 23.2 N 11 15 1019.6 - 0.0 - - 10 - - - -
29/10:00am 23.3 NNE 11 15 1019.9 - 0.0 - - 10 - - - -

Other Formats:

Comma delimited format used in spreadsheet applications
http://www.bom.gov.au/fwo/IDN60701/IDN60701.94596.axf

JavaScript Object Notation format (JSON) in row-major order
http://www.bom.gov.au/fwo/IDN60701/IDN60701.94596.json